Time;durP1;ratioP1;P1;durP2;ratioP2;P2;SDS_P1;SDS_P2;PMS_P1;PMS_P2;Temp;Humidity;BMP_temperature;BMP_pressure;BME280_temperature;BME280_humidity;BME280_pressure;Samples;Min_cycle;Max_cycle;Signal;HPM_P1;HPM_P2
2023/02/10 00:02:44;;;;;;;34.75;20.63;;;;;;;-3.62;63.01;101874.91;10369998;28;20057;-67
2023/02/10 00:07:46;;;;;;;35.05;21.23;;;;;;;-3.61;63.00;101885.22;10371223;28;20046;-67
2023/02/10 00:12:48;;;;;;;36.30;20.55;;;;;;;-3.58;63.12;101882.72;10370109;28;20054;-67
2023/02/10 00:17:49;;;;;;;37.45;21.13;;;;;;;-3.46;63.17;101882.19;10370164;28;20064;-67
2023/02/10 00:22:51;;;;;;;36.67;20.80;;;;;;;-3.28;63.07;101882.72;10376234;28;20064;-67
2023/02/10 00:27:53;;;;;;;37.83;21.00;;;;;;;-3.10;62.88;101878.09;10378168;28;20112;-67
2023/02/10 00:32:54;;;;;;;34.33;20.08;;;;;;;-2.95;62.70;101889.59;10382148;28;20407;-67
2023/02/10 00:37:56;;;;;;;37.45;21.58;;;;;;;-2.78;62.51;101900.28;10379361;28;20049;-67
2023/02/10 00:42:58;;;;;;;41.90;21.13;;;;;;;-2.61;62.38;101904.09;10376117;28;20060;-67
2023/02/10 00:47:59;;;;;;;41.15;24.63;;;;;;;-2.38;62.23;101902.97;10378349;28;20045;-66
2023/02/10 00:53:01;;;;;;;48.63;28.17;;;;;;;-2.22;61.99;101905.06;10376134;28;20056;-66
2023/02/10 00:58:02;;;;;;;33.92;20.98;;;;;;;-2.24;61.85;101909.28;10381445;28;20052;-66
2023/02/10 01:03:04;;;;;;;35.58;20.17;;;;;;;-2.15;61.89;101914.66;10376615;28;20053;-67
2023/02/10 01:08:06;;;;;;;35.25;20.00;;;;;;;-2.01;61.81;101913.25;10372096;28;20409;-66
2023/02/10 01:13:09;;;;;;;32.92;20.67;;;;;;;-1.87;61.69;101907.56;10374888;28;20565;-66
2023/02/10 01:18:11;;;;;;;34.65;20.95;;;;;;;-1.80;61.53;101899.19;10374514;28;20494;-67
2023/02/10 01:23:13;;;;;;;32.10;20.10;;;;;;;-1.68;61.53;101902.88;10394032;28;20050;-67
2023/02/10 01:28:15;;;;;;;32.00;19.48;;;;;;;-1.60;61.30;101905.59;10375935;28;20050;-67
2023/02/10 01:33:16;;;;;;;32.40;20.27;;;;;;;-1.61;61.19;101898.72;10375973;28;20045;-67
2023/02/10 01:38:18;;;;;;;32.90;19.77;;;;;;;-1.51;61.34;101908.38;10371033;28;20227;-67
2023/02/10 01:43:20;;;;;;;33.03;20.13;;;;;;;-1.47;61.30;101907.59;10378861;28;20042;-67
2023/02/10 01:48:24;;;;;;;36.88;20.88;;;;;;;-1.37;61.17;101912.91;10371371;28;20092;-67
2023/02/10 01:53:26;;;;;;;33.15;19.17;;;;;;;-1.38;61.01;101906.06;10373435;28;20049;-67
2023/02/10 01:58:32;;;;;;;34.13;20.63;;;;;;;-1.34;61.11;101919.81;10377151;28;20046;-67
2023/02/10 02:03:34;;;;;;;38.65;20.17;;;;;;;-1.26;60.85;101923.41;10375680;28;20045;-67
2023/02/10 02:08:37;;;;;;;31.65;19.27;;;;;;;-1.20;60.99;101928.66;10374480;28;20054;-67
2023/02/10 02:13:58;;;;;;;32.92;20.17;;;;;;;-1.27;61.65;101931.94;10371326;28;20049;-67
2023/02/10 02:19:15;;;;;;;38.10;22.02;;;;;;;-1.27;61.87;101935.34;10389900;28;20049;-67
2023/02/10 02:24:46;;;;;;;35.50;21.02;;;;;;;-1.19;61.83;101935.53;10376254;28;20049;-67
2023/02/10 02:30:11;;;;;;;32.97;19.80;;;;;;;-1.18;61.60;101945.81;10370062;28;20045;-67
2023/02/10 02:35:24;;;;;;;32.55;20.38;;;;;;;-0.97;61.30;101947.94;10365983;28;20053;-67
2023/02/10 02:40:26;;;;;;;35.50;21.42;;;;;;;-0.78;60.80;101950.00;10373413;28;20283;-66
2023/02/10 02:45:49;;;;;;;34.05;20.88;;;;;;;-0.76;61.03;101935.47;10370868;28;20482;-67
2023/02/10 02:51:03;;;;;;;35.30;21.75;;;;;;;-0.73;60.79;101932.97;10372348;28;20457;-67
2023/02/10 02:56:15;;;;;;;33.78;20.73;;;;;;;-0.71;60.89;101933.88;10370665;28;20056;-67
2023/02/10 03:01:38;;;;;;;30.10;19.13;;;;;;;-0.67;60.78;101948.50;10373608;28;20064;-67
2023/02/10 03:06:40;;;;;;;31.73;19.33;;;;;;;-0.61;60.63;101940.91;10378038;28;20046;-67
2023/02/10 03:11:42;;;;;;;33.58;21.38;;;;;;;-0.57;60.64;101944.38;10382421;28;20045;-66
2023/02/10 03:16:44;;;;;;;33.58;20.48;;;;;;;-0.59;60.67;101946.06;10380631;28;20072;-67
2023/02/10 03:21:46;;;;;;;33.33;20.98;;;;;;;-0.71;60.86;101946.72;10377960;28;20064;-67
2023/02/10 03:26:48;;;;;;;34.85;21.70;;;;;;;-0.73;61.03;101937.25;10378157;28;20046;-67
2023/02/10 03:31:50;;;;;;;34.80;22.23;;;;;;;-0.68;61.18;101946.78;10377494;28;20490;-67
2023/02/10 03:36:51;;;;;;;39.35;23.10;;;;;;;-0.63;61.27;101945.16;10380453;28;20060;-67
2023/02/10 03:41:53;;;;;;;37.35;23.95;;;;;;;-0.53;61.22;101952.19;10383035;28;20057;-67
2023/02/10 03:46:55;;;;;;;35.42;21.75;;;;;;;-0.48;61.28;101949.69;10383505;28;20053;-67
2023/02/10 03:51:56;;;;;;;37.63;23.45;;;;;;;-0.57;61.55;101952.97;10382804;28;20041;-67
2023/02/10 03:56:58;;;;;;;41.28;23.55;;;;;;;-0.65;61.70;101959.69;10384023;28;20469;-67
2023/02/10 04:02:00;;;;;;;39.17;24.67;;;;;;;-0.61;61.67;101963.16;10388521;28;20057;-67
2023/02/10 04:07:03;;;;;;;40.90;26.55;;;;;;;-0.64;61.81;101970.81;10379875;28;20053;-67
2023/02/10 04:12:04;;;;;;;47.13;25.63;;;;;;;-0.59;61.89;101962.34;10375075;28;20057;-67
2023/02/10 04:17:06;;;;;;;50.75;26.85;;;;;;;-0.74;62.38;101971.50;10377172;28;20550;-67
2023/02/10 04:22:08;;;;;;;42.75;26.08;;;;;;;-0.85;62.62;101989.28;10377534;28;20050;-67
2023/02/10 04:27:09;;;;;;;45.00;25.83;;;;;;;-0.89;62.92;101984.03;10379786;28;20057;-67
2023/02/10 04:32:11;;;;;;;42.83;24.20;;;;;;;-0.87;62.78;101985.81;10378371;28;20061;-66
2023/02/10 04:37:13;;;;;;;54.90;25.83;;;;;;;-0.63;62.66;101981.13;10392284;28;20120;-66
2023/02/10 04:42:16;;;;;;;53.63;27.77;;;;;;;-0.44;62.40;101985.78;10375913;28;20076;-66
2023/02/10 04:47:17;;;;;;;38.95;23.98;;;;;;;-0.38;62.28;101982.44;10379055;28;20057;-67
2023/02/10 04:52:19;;;;;;;40.08;22.45;;;;;;;-0.35;62.15;101988.47;10376949;28;20050;-67
2023/02/10 04:57:21;;;;;;;40.83;26.20;;;;;;;-0.33;62.16;101989.38;10376358;28;20408;-66
2023/02/10 05:02:22;;;;;;;52.03;25.73;;;;;;;-0.48;62.40;101993.38;10379537;28;20061;-66
2023/02/10 05:07:24;;;;;;;46.33;26.90;;;;;;;-0.63;62.49;101996.53;10376066;28;20593;-67
2023/02/10 05:12:26;;;;;;;44.47;26.75;;;;;;;-0.67;62.63;102005.03;10376144;28;20045;-67
2023/02/10 05:17:27;;;;;;;45.42;26.55;;;;;;;-0.50;62.74;101995.94;10376579;28;20050;-67
2023/02/10 05:22:29;;;;;;;43.25;26.75;;;;;;;-0.32;62.53;101991.13;10375162;28;20078;-67
2023/02/10 05:27:31;;;;;;;44.10;25.92;;;;;;;-0.22;62.51;101980.97;10379316;28;20413;-67
2023/02/10 05:32:33;;;;;;;48.03;26.77;;;;;;;-0.22;62.51;101973.25;10374261;28;20404;-66
2023/02/10 05:37:35;;;;;;;43.33;26.52;;;;;;;-0.21;62.11;101975.00;10376511;28;20481;-67
2023/02/10 05:42:37;;;;;;;42.97;26.23;;;;;;;-0.53;62.67;101971.88;10374560;28;20391;-67
2023/02/10 05:47:38;;;;;;;43.72;25.45;;;;;;;-0.65;62.60;101975.09;10379236;28;20048;-66
2023/02/10 05:52:40;;;;;;;48.90;26.33;;;;;;;-0.78;62.85;101969.72;10371822;28;20049;-67
2023/02/10 05:57:42;;;;;;;57.28;27.85;;;;;;;-0.87;62.88;101970.41;10378054;28;20448;-67
2023/02/10 06:02:43;;;;;;;45.97;25.40;;;;;;;-1.11;62.92;101975.06;10373553;28;20403;-67
2023/02/10 06:07:45;;;;;;;55.72;28.10;;;;;;;-1.24;63.30;101970.50;10376576;28;20064;-67
2023/02/10 06:12:46;;;;;;;56.65;27.50;;;;;;;-1.38;63.56;101979.63;10374478;28;20071;-67
2023/02/10 06:17:48;;;;;;;60.15;28.92;;;;;;;-1.41;63.42;101989.84;10372864;28;20163;-67
2023/02/10 06:22:50;;;;;;;62.25;35.90;;;;;;;-1.40;63.67;101991.56;10375779;28;20053;-66
2023/02/10 06:27:51;;;;;;;44.85;25.88;;;;;;;-1.28;63.71;102002.94;10371613;28;20059;-67
2023/02/10 06:32:53;;;;;;;47.53;25.95;;;;;;;-1.07;63.38;102011.94;10374715;28;20051;-68
2023/02/10 06:37:55;;;;;;;50.72;25.42;;;;;;;-0.88;63.30;102017.44;10388560;28;20042;-66
2023/02/10 06:42:56;;;;;;;53.13;26.15;;;;;;;-0.76;63.32;102020.25;10375105;28;20045;-67
2023/02/10 06:47:58;;;;;;;42.08;24.48;;;;;;;-0.62;63.10;102033.38;10373004;28;21023;-67
2023/02/10 06:52:59;;;;;;;43.97;25.80;;;;;;;-0.58;63.22;102040.31;10374248;28;20052;-67
2023/02/10 06:58:02;;;;;;;47.72;27.88;;;;;;;-0.51;63.17;102045.59;10367668;28;20564;-67
2023/02/10 07:03:04;;;;;;;50.40;28.55;;;;;;;-0.45;63.06;102052.53;10373564;28;20054;-67
2023/02/10 07:08:06;;;;;;;54.40;29.52;;;;;;;-0.49;63.30;102051.63;10374023;28;20546;-67
2023/02/10 07:13:09;;;;;;;43.92;25.95;;;;;;;-0.38;63.23;102055.28;10377899;28;20481;-67
2023/02/10 07:18:11;;;;;;;50.97;27.08;;;;;;;-0.19;63.06;102055.59;10375599;28;20041;-67
2023/02/10 07:23:12;;;;;;;48.58;28.40;;;;;;;-0.18;62.74;102054.75;10368914;28;20060;-68
2023/02/10 07:28:17;;;;;;;43.42;27.10;;;;;;;-0.16;62.74;102058.22;10366624;28;20493;-67
2023/02/10 07:33:19;;;;;;;46.70;27.67;;;;;;;0.03;62.58;102056.00;10376020;28;20172;-67
2023/02/10 07:38:21;;;;;;;44.10;26.83;;;;;;;-0.15;62.59;102055.69;10393232;28;20523;-67
2023/02/10 07:43:24;;;;;;;49.45;28.15;;;;;;;-0.47;63.07;102061.94;10387877;28;20148;-67
2023/02/10 07:48:25;;;;;;;47.75;28.48;;;;;;;-0.59;63.51;102066.84;10384576;28;20045;-67
2023/02/10 07:53:27;;;;;;;46.30;29.00;;;;;;;-0.44;63.51;102068.03;10387464;28;20419;-67
2023/02/10 07:58:29;;;;;;;47.65;28.65;;;;;;;-0.21;63.29;102070.13;10386250;28;20469;-67
2023/02/10 08:03:31;;;;;;;50.50;30.42;;;;;;;-0.11;63.19;102079.75;10394338;28;20175;-67
2023/02/10 08:08:33;;;;;;;53.78;30.67;;;;;;;0.00;63.00;102073.94;10396203;28;20474;-66
2023/02/10 08:13:34;;;;;;;48.80;29.73;;;;;;;0.08;62.70;102081.78;10394947;28;20049;-66
2023/02/10 08:18:36;;;;;;;46.65;28.95;;;;;;;0.32;62.20;102092.50;10392009;28;20042;-66
2023/02/10 08:23:38;;;;;;;45.53;28.70;;;;;;;0.64;62.04;102083.56;10395116;28;20053;-67
2023/02/10 08:28:40;;;;;;;50.13;28.98;;;;;;;1.16;61.22;102077.41;10398325;28;20554;-66
2023/02/10 08:33:43;;;;;;;46.13;27.67;;;;;;;1.48;60.50;102081.25;10399044;28;20055;-66
2023/02/10 08:38:49;;;;;;;44.70;27.92;;;;;;;1.75;60.02;102078.94;10397939;28;20054;-67
2023/02/10 08:43:50;;;;;;;45.83;27.15;;;;;;;1.94;59.55;102077.41;10393843;28;20053;-66
2023/02/10 08:48:52;;;;;;;45.30;29.20;;;;;;;1.99;59.48;102075.75;10391495;28;20053;-66
2023/02/10 08:53:55;;;;;;;47.20;29.85;;;;;;;2.16;59.21;102074.19;10389818;28;20080;-66
2023/02/10 08:58:57;;;;;;;42.25;28.70;;;;;;;2.29;59.09;102065.69;10390091;28;20053;-66
2023/02/10 09:03:59;;;;;;;43.58;28.15;;;;;;;2.35;58.86;102070.91;10390375;28;20060;-66
2023/02/10 09:09:00;;;;;;;42.40;27.42;;;;;;;2.17;59.01;102081.09;10390363;28;20128;-66
2023/02/10 09:14:02;;;;;;;45.13;29.35;;;;;;;2.20;58.87;102086.25;10390928;28;20688;-66
2023/02/10 09:19:04;;;;;;;46.72;29.98;;;;;;;2.25;58.64;102089.75;10390681;28;20057;-66
2023/02/10 09:24:06;;;;;;;52.42;30.73;;;;;;;2.14;58.83;102086.22;10389225;28;20551;-66
2023/02/10 09:29:07;;;;;;;49.72;29.33;;;;;;;2.29;59.08;102085.47;10381377;28;20056;-66
2023/02/10 09:34:09;;;;;;;45.22;29.20;;;;;;;2.21;58.58;102083.69;10382621;28;20127;-66
2023/02/10 09:39:11;;;;;;;47.38;30.15;;;;;;;2.36;58.80;102098.44;10381405;28;20038;-66
2023/02/10 09:44:26;;;;;;;49.72;30.17;;;;;;;2.47;58.58;102090.78;10382537;28;20403;-66
2023/02/10 09:49:55;;;;;;;49.92;30.50;;;;;;;2.64;58.19;102091.78;10379731;28;20598;-66
2023/02/10 09:54:59;;;;;;;47.30;29.92;;;;;;;2.95;57.75;102104.88;10379948;28;20622;-66
2023/02/10 10:00:03;;;;;;;46.88;29.60;;;;;;;3.22;57.45;102106.75;10376892;28;20771;-66
2023/02/10 10:05:27;;;;;;;46.55;29.67;;;;;;;3.60;56.84;102101.75;10377714;28;20061;-66
2023/02/10 10:10:40;;;;;;;44.30;27.02;;;;;;;4.09;56.17;102100.16;10379639;28;20568;-66
2023/02/10 10:15:56;;;;;;;41.53;26.95;;;;;;;4.10;55.61;102107.94;10384966;28;20057;-66
2023/02/10 10:21:15;;;;;;;42.40;27.15;;;;;;;4.26;55.53;102099.31;10375969;28;20045;-66
2023/02/10 10:26:16;;;;;;;36.40;24.77;;;;;;;4.49;55.58;102107.97;10382884;28;20052;-66
2023/02/10 10:31:39;;;;;;;40.95;27.17;;;;;;;4.57;54.72;102103.63;10378080;28;20402;-67
2023/02/10 10:36:47;;;;;;;41.83;27.17;;;;;;;4.25;54.50;102102.75;10381804;28;20053;-67
2023/02/10 10:41:49;;;;;;;40.35;26.38;;;;;;;4.16;55.68;102100.16;10374139;28;20064;-66
2023/02/10 10:47:08;;;;;;;41.47;26.92;;;;;;;4.27;55.09;102101.03;10380913;28;20450;-66
2023/02/10 10:52:36;;;;;;;39.33;26.25;;;;;;;4.22;54.93;102094.13;10376201;28;20057;-66
2023/02/10 10:57:39;;;;;;;37.65;26.20;;;;;;;4.13;55.37;102089.78;10381276;28;20338;-66
2023/02/10 11:02:55;;;;;;;35.22;25.40;;;;;;;4.11;54.40;102088.09;10382528;28;20533;-66
2023/02/10 11:07:57;;;;;;;36.78;25.40;;;;;;;3.78;55.62;102084.53;10378878;28;20049;-67
2023/02/10 11:13:01;;;;;;;39.08;25.75;;;;;;;3.92;55.58;102079.44;10394388;28;20331;-66
2023/02/10 11:18:06;;;;;;;38.30;25.48;;;;;;;3.84;55.66;102074.22;10378689;28;20064;-66
2023/02/10 11:23:15;;;;;;;37.47;24.48;;;;;;;3.58;56.01;102064.63;10380267;28;20057;-66
2023/02/10 11:28:21;;;;;;;36.38;24.80;;;;;;;3.69;56.08;102068.13;10377132;28;20061;-66
2023/02/10 11:33:27;;;;;;;44.53;27.92;;;;;;;3.98;55.83;102061.31;10375866;28;20064;-66
2023/02/10 11:38:29;;;;;;;44.08;28.42;;;;;;;4.04;55.60;102061.31;10372545;28;20053;-66
2023/02/10 11:43:35;;;;;;;47.30;30.83;;;;;;;4.11;55.34;102062.19;10371667;28;20061;-66
2023/02/10 11:48:37;;;;;;;42.42;27.02;;;;;;;3.85;55.86;102073.38;10369089;28;20270;-66
2023/02/10 11:53:41;;;;;;;40.03;26.75;;;;;;;3.95;55.87;102061.28;10374671;28;20049;-66
2023/02/10 11:59:15;;;;;;;38.63;24.40;;;;;;;4.13;55.27;102050.94;10374189;28;20146;-67
2023/02/10 12:04:54;;;;;;;38.78;25.35;;;;;;;4.29;54.95;102047.50;10376791;28;20045;-66
2023/02/10 12:10:15;;;;;;;36.77;23.57;;;;;;;4.69;54.73;102045.72;10376582;28;20052;-66
2023/02/10 12:15:35;;;;;;;34.03;21.88;;;;;;;4.82;53.83;102028.41;10377234;28;20057;-67
2023/02/10 12:20:51;;;;;;;34.40;21.73;;;;;;;4.93;53.87;102027.50;10385196;28;20045;-66
2023/02/10 12:26:05;;;;;;;32.13;20.90;;;;;;;5.11;53.69;102011.88;10387276;28;20053;-67
2023/02/10 12:31:28;;;;;;;34.50;22.10;;;;;;;5.25;53.05;101998.81;10382843;28;20646;-66
2023/02/10 12:36:48;;;;;;;34.10;21.13;;;;;;;5.33;53.35;101994.50;10383933;28;20057;-67
2023/02/10 12:41:58;;;;;;;31.42;21.17;;;;;;;5.45;52.68;101997.00;10384324;28;20045;-67
2023/02/10 12:47:09;;;;;;;35.00;22.48;;;;;;;5.66;52.64;101999.44;10387228;28;20149;-66
2023/02/10 12:52:15;;;;;;;31.03;19.83;;;;;;;5.68;52.05;101992.50;10384177;28;20041;-66
2023/02/10 12:57:32;;;;;;;30.83;19.30;;;;;;;5.84;51.87;101986.31;10387226;28;20503;-67
2023/02/10 13:02:56;;;;;;;28.75;19.08;;;;;;;6.37;51.06;101977.25;10382624;28;20049;-67
2023/02/10 13:08:01;;;;;;;30.40;19.35;;;;;;;6.53;51.12;101981.41;10381619;28;20106;-65
2023/02/10 13:13:32;;;;;;;30.20;20.55;;;;;;;6.58;49.98;101977.00;10384712;28;20045;-66
2023/02/10 13:18:44;;;;;;;30.02;20.13;;;;;;;6.69;50.55;101980.34;10370445;28;20115;-66
2023/02/10 13:23:59;;;;;;;29.70;19.65;;;;;;;6.88;49.93;101984.44;10386000;28;20305;-65
2023/02/10 13:29:35;;;;;;;31.33;19.25;;;;;;;6.56;49.57;101986.56;10374251;28;20525;-66
2023/02/10 13:34:48;;;;;;;30.55;19.65;;;;;;;6.48;50.55;101980.59;10381324;28;20555;-66
2023/02/10 13:39:55;;;;;;;27.85;18.77;;;;;;;6.69;49.88;101976.03;10379798;28;20471;-66
2023/02/10 13:45:05;;;;;;;29.92;18.80;;;;;;;6.35;51.22;101974.66;10380171;28;20081;-66
2023/02/10 13:50:13;;;;;;;31.23;19.33;;;;;;;6.16;51.06;101968.75;10379721;28;21174;-66
2023/02/10 13:55:15;;;;;;;30.55;19.33;;;;;;;6.12;51.67;101968.78;10378275;28;20138;-66
2023/02/10 14:00:48;;;;;;;28.63;17.70;;;;;;;6.01;51.36;101965.41;10379604;28;20101;-66
2023/02/10 14:05:56;;;;;;;28.80;17.15;;;;;;;5.93;52.11;101959.44;10379529;28;20151;-66
2023/02/10 14:11:01;;;;;;;27.75;16.63;;;;;;;6.14;51.82;101964.44;10376798;28;20065;-66
2023/02/10 14:16:27;;;;;;;26.98;16.20;;;;;;;6.04;51.88;101962.81;10384709;28;20679;-65
2023/02/10 14:21:40;;;;;;;26.23;15.90;;;;;;;6.04;52.05;101953.25;10378100;28;20053;-66
2023/02/10 14:26:44;;;;;;;26.70;16.20;;;;;;;6.23;51.99;101951.34;10380953;28;20402;-65
2023/02/10 14:31:51;;;;;;;25.48;15.57;;;;;;;6.27;52.03;101951.34;10377939;28;20735;-66
2023/02/10 14:36:57;;;;;;;29.08;16.00;;;;;;;6.03;52.27;101954.16;10370824;28;20633;-66
2023/02/10 14:42:05;;;;;;;29.20;17.15;;;;;;;5.97;52.51;101940.34;10377126;28;20049;-65
2023/02/10 14:47:14;;;;;;;27.88;16.45;;;;;;;5.81;52.58;101939.63;10381200;28;20045;-66
2023/02/10 14:52:39;;;;;;;27.40;16.30;;;;;;;5.68;52.74;101926.75;10376545;28;20801;-65
2023/02/10 14:57:43;;;;;;;28.33;16.52;;;;;;;5.62;53.05;101937.19;10374564;28;20045;-65
2023/02/10 15:02:51;;;;;;;26.70;15.80;;;;;;;5.57;53.25;101931.19;10377697;28;20068;-65
2023/02/10 15:07:56;;;;;;;26.75;15.55;;;;;;;5.39;53.60;101929.59;10376113;28;20430;-65
2023/02/10 15:12:59;;;;;;;28.00;15.63;;;;;;;5.23;53.89;101934.00;10378104;28;20049;-66
2023/02/10 15:18:20;;;;;;;25.48;14.75;;;;;;;4.93;54.40;101930.69;10375555;28;20072;-65
2023/02/10 15:23:22;;;;;;;24.70;14.27;;;;;;;4.87;54.57;101930.72;10378581;28;20057;-65
2023/02/10 15:28:32;;;;;;;23.63;14.55;;;;;;;4.75;54.63;101931.66;10378033;28;20549;-65
2023/02/10 15:34:15;;;;;;;25.67;14.88;;;;;;;4.62;55.19;101932.56;10379117;28;20053;-65
2023/02/10 15:39:24;;;;;;;27.27;14.52;;;;;;;4.67;54.92;101936.88;10373515;28;20041;-65
2023/02/10 15:44:41;;;;;;;24.98;14.43;;;;;;;4.54;55.22;101937.78;10378337;28;20042;-65
2023/02/10 15:49:44;;;;;;;25.73;15.02;;;;;;;4.51;55.33;101934.34;10376696;28;20097;-65
2023/02/10 15:54:46;;;;;;;24.52;14.32;;;;;;;4.37;55.51;101934.38;10387074;28;20049;-65
2023/02/10 15:59:50;;;;;;;25.48;14.90;;;;;;;4.28;55.63;101931.81;10385266;28;20049;-65
2023/02/10 16:04:52;;;;;;;24.63;13.68;;;;;;;4.10;55.86;101929.28;10378432;28;20051;-65
2023/02/10 16:09:55;;;;;;;22.23;13.25;;;;;;;3.98;56.05;101939.63;10382089;28;20497;-65
2023/02/10 16:14:57;;;;;;;23.42;13.70;;;;;;;3.76;56.52;101937.91;10385866;28;20045;-66
2023/02/10 16:19:59;;;;;;;25.13;13.73;;;;;;;3.63;56.68;101933.56;10380953;28;20726;-65
2023/02/10 16:25:01;;;;;;;23.05;13.30;;;;;;;3.43;56.98;101923.22;10386623;28;20061;-65
2023/02/10 16:30:03;;;;;;;23.17;13.85;;;;;;;3.25;57.32;101930.09;10382877;28;20045;-65
2023/02/10 16:35:05;;;;;;;23.90;13.77;;;;;;;3.03;57.83;101929.16;10384366;28;20057;-65
2023/02/10 16:40:07;;;;;;;24.02;13.32;;;;;;;2.85;58.04;101924.81;10383421;28;20045;-65
2023/02/10 16:45:09;;;;;;;23.52;13.88;;;;;;;2.64;58.48;101929.03;10387179;28;20060;-65
2023/02/10 16:50:39;;;;;;;25.52;14.15;;;;;;;2.54;58.93;101938.44;10378715;28;20041;-65
2023/02/10 16:55:41;;;;;;;26.55;15.30;;;;;;;2.39;58.93;101938.38;10378355;28;20228;-65
2023/02/10 17:00:44;;;;;;;24.67;14.60;;;;;;;2.34;59.04;101936.66;10378334;28;20052;-65
2023/02/10 17:05:46;;;;;;;26.02;14.95;;;;;;;2.30;59.21;101938.31;10381883;28;20049;-65
2023/02/10 17:10:48;;;;;;;26.38;14.93;;;;;;;2.22;59.39;101933.13;10379068;28;20091;-65
2023/02/10 17:15:50;;;;;;;25.52;14.80;;;;;;;2.13;59.63;101950.28;10381022;28;20041;-65
2023/02/10 17:20:52;;;;;;;27.15;16.58;;;;;;;2.10;59.99;101948.53;10383966;28;20506;-66
2023/02/10 17:25:55;;;;;;;29.25;16.40;;;;;;;1.97;60.31;101969.09;10384695;28;20560;-65
2023/02/10 17:30:56;;;;;;;23.85;14.60;;;;;;;1.93;60.64;101970.75;10374285;28;20049;-65
2023/02/10 17:35:58;;;;;;;27.27;17.05;;;;;;;1.89;60.70;101975.91;10378887;28;20204;-65
2023/02/10 17:41:00;;;;;;;27.60;15.90;;;;;;;1.87;60.97;101978.44;10380044;28;20054;-65
2023/02/10 17:46:02;;;;;;;28.85;16.50;;;;;;;1.89;60.62;101987.06;10384069;28;20049;-65
2023/02/10 17:51:09;;;;;;;29.85;17.65;;;;;;;1.82;60.68;101976.69;10380267;28;20164;-65
2023/02/10 17:56:11;;;;;;;30.88;17.70;;;;;;;1.74;60.90;101986.09;10380409;28;20053;-65
2023/02/10 18:01:24;;;;;;;28.50;17.20;;;;;;;1.61;61.72;101990.25;10376266;28;20063;-65
2023/02/10 18:06:28;;;;;;;28.48;17.48;;;;;;;1.56;61.58;102001.38;10382434;28;20430;-65
2023/02/10 18:11:30;;;;;;;29.25;16.42;;;;;;;1.47;61.99;101993.56;10377618;28;20042;-65
2023/02/10 18:16:32;;;;;;;26.95;16.77;;;;;;;1.52;61.96;101989.31;10380755;28;20418;-65
2023/02/10 18:21:35;;;;;;;31.33;17.58;;;;;;;1.49;62.05;101974.69;10378994;28;20560;-65
2023/02/10 18:26:37;;;;;;;29.55;16.85;;;;;;;1.48;62.04;101977.25;10382572;28;20054;-65
2023/02/10 18:31:38;;;;;;;30.45;18.15;;;;;;;1.49;62.32;101976.38;10379734;28;20056;-66
2023/02/10 18:36:40;;;;;;;29.17;17.48;;;;;;;1.42;62.62;101984.91;10379942;28;21116;-66
2023/02/10 18:41:42;;;;;;;32.08;18.27;;;;;;;1.41;62.65;101975.44;10381648;28;20049;-66
2023/02/10 18:46:44;;;;;;;31.05;19.08;;;;;;;1.38;62.85;101978.84;10380946;28;20377;-67
2023/02/10 18:51:52;;;;;;;40.72;21.73;;;;;;;1.36;62.80;101978.84;10380397;28;20049;-68
2023/02/10 18:56:54;;;;;;;37.70;20.73;;;;;;;1.30;63.06;101978.78;10385106;28;20457;-67
2023/02/10 19:01:55;;;;;;;36.03;20.02;;;;;;;1.29;63.23;101964.19;10377661;28;20045;-68
2023/02/10 19:06:57;;;;;;;34.92;20.25;;;;;;;1.26;63.22;101966.72;10383809;28;20103;-67
2023/02/10 19:11:59;;;;;;;34.88;20.90;;;;;;;1.24;63.39;101963.25;10376574;28;20041;-67
2023/02/10 19:17:02;;;;;;;43.10;23.48;;;;;;;1.24;63.48;101962.38;10380685;28;20052;-67
2023/02/10 19:22:08;;;;;;;40.97;24.08;;;;;;;1.22;63.75;101959.78;10377232;28;20049;-68
2023/02/10 19:27:09;;;;;;;105.25;54.10;;;;;;;1.19;63.87;101954.63;10376646;28;20080;-67
2023/02/10 19:32:12;;;;;;;114.07;53.45;;;;;;;1.12;64.09;101952.81;10376513;28;20482;-67
2023/02/10 19:37:14;;;;;;;64.57;31.90;;;;;;;0.94;65.00;101946.59;10379872;28;20050;-67
2023/02/10 19:42:15;;;;;;;132.98;62.33;;;;;;;0.88;64.86;101931.06;10375434;28;20402;-67
2023/02/10 19:47:17;;;;;;;42.15;24.13;;;;;;;0.93;64.48;101956.03;10379685;28;20585;-67
2023/02/10 19:52:19;;;;;;;41.78;24.70;;;;;;;0.91;64.88;101975.75;10376296;28;20534;-67
2023/02/10 19:57:21;;;;;;;45.70;25.27;;;;;;;0.99;64.86;101976.69;10378971;28;20056;-67
2023/02/10 20:02:23;;;;;;;45.15;24.55;;;;;;;0.97;65.13;101980.13;10372637;28;20616;-67
2023/02/10 20:07:24;;;;;;;44.33;23.38;;;;;;;0.91;65.22;101985.22;10377268;28;20374;-68
2023/02/10 20:12:27;;;;;;;45.17;23.27;;;;;;;0.84;65.70;101983.38;10384972;28;20085;-67
2023/02/10 20:17:28;;;;;;;45.28;25.20;;;;;;;0.85;65.55;101974.84;10385819;28;20049;-67
2023/02/10 20:22:30;;;;;;;45.88;25.70;;;;;;;0.77;65.27;101969.56;10383941;28;20556;-67
2023/02/10 20:27:32;;;;;;;49.50;27.52;;;;;;;0.71;65.66;101959.19;10381472;28;20053;-67
2023/02/10 20:32:33;;;;;;;47.95;26.90;;;;;;;0.74;65.69;101945.50;10379940;28;20405;-67
2023/02/10 20:37:35;;;;;;;50.97;27.73;;;;;;;0.72;65.69;101937.75;10383469;28;20054;-67
2023/02/10 20:42:37;;;;;;;53.75;28.15;;;;;;;0.71;65.87;101928.28;10389139;28;20064;-67
2023/02/10 20:47:38;;;;;;;49.35;27.90;;;;;;;0.85;65.69;101920.75;10383067;28;20987;-67
2023/02/10 20:52:43;;;;;;;54.53;29.15;;;;;;;1.00;65.66;101910.59;10379978;28;20045;-67
2023/02/10 20:57:45;;;;;;;52.75;29.45;;;;;;;1.18;65.24;101913.34;10382733;28;20042;-67
2023/02/10 21:02:47;;;;;;;58.42;30.08;;;;;;;1.33;65.13;101927.28;10382852;28;20729;-67
2023/02/10 21:07:48;;;;;;;53.58;29.10;;;;;;;1.52;64.83;101917.13;10376622;28;20705;-68
2023/02/10 21:12:50;;;;;;;49.63;28.30;;;;;;;1.51;64.75;101913.69;10385165;28;20045;-67
2023/02/10 21:17:51;;;;;;;50.38;28.98;;;;;;;1.49;64.70;101909.34;10379442;28;20307;-67
2023/02/10 21:22:53;;;;;;;54.33;30.75;;;;;;;1.51;64.97;101921.41;10380463;28;20360;-67
2023/02/10 21:27:55;;;;;;;52.47;30.25;;;;;;;1.72;64.68;101926.75;10372875;28;20196;-67
2023/02/10 21:32:56;;;;;;;52.33;30.25;;;;;;;1.83;64.48;101921.66;10376029;28;20056;-68
2023/02/10 21:37:58;;;;;;;54.45;31.63;;;;;;;1.90;64.48;101915.69;10375931;28;20473;-67
2023/02/10 21:43:00;;;;;;;59.85;36.38;;;;;;;1.93;64.36;101916.56;10380575;28;20478;-67
2023/02/10 21:48:04;;;;;;;53.72;30.90;;;;;;;2.13;64.10;101921.88;10377402;28;20560;-67
2023/02/10 21:53:06;;;;;;;53.33;31.10;;;;;;;2.32;63.65;101928.03;10383109;28;20057;-67
2023/02/10 21:58:08;;;;;;;56.53;33.80;;;;;;;2.35;63.52;101916.00;10384120;28;20055;-67
2023/02/10 22:03:09;;;;;;;48.25;28.23;;;;;;;2.39;63.18;101911.69;10382129;28;20089;-67
2023/02/10 22:08:11;;;;;;;42.22;25.27;;;;;;;2.29;62.72;101915.97;10380526;28;20288;-67
2023/02/10 22:13:14;;;;;;;53.90;31.98;;;;;;;2.34;63.03;101905.66;10380809;28;20046;-67
2023/02/10 22:18:15;;;;;;;45.35;25.63;;;;;;;2.39;62.66;101907.41;10381423;28;20041;-67
2023/02/10 22:23:17;;;;;;;47.25;27.10;;;;;;;2.35;62.44;101900.50;10381847;28;20305;-67
2023/02/10 22:28:19;;;;;;;49.17;28.67;;;;;;;2.25;62.62;101897.84;10380334;28;20045;-67
2023/02/10 22:33:21;;;;;;;47.42;27.15;;;;;;;2.27;62.65;101911.63;10379175;28;20448;-67
2023/02/10 22:38:23;;;;;;;51.58;31.70;;;;;;;2.22;63.12;101915.06;10379840;28;20063;-67
2023/02/10 22:43:24;;;;;;;53.50;30.95;;;;;;;2.31;63.30;101909.09;10377914;28;20053;-67
2023/02/10 22:48:26;;;;;;;54.08;31.17;;;;;;;2.34;63.39;101913.41;10380514;28;20417;-67
2023/02/10 22:53:28;;;;;;;54.90;31.75;;;;;;;2.27;63.63;101907.34;10379187;28;20045;-67
2023/02/10 22:58:29;;;;;;;52.90;31.20;;;;;;;2.27;64.00;101909.06;10380206;28;20049;-67
2023/02/10 23:03:31;;;;;;;55.38;34.90;;;;;;;2.38;63.79;101895.34;10376290;28;20057;-67